sensor_id;sensor_type;location;lat;lon;timestamp;P1;durP1;ratioP1;P2;durP2;ratioP2
6205;SDS011;3136;48.788;9.772;2022-12-11T00:02:07;30.23;;;18.27;;
6205;SDS011;3136;48.788;9.772;2022-12-11T00:04:32;28.63;;;17.43;;
6205;SDS011;3136;48.788;9.772;2022-12-11T00:06:58;29.93;;;18.23;;
6205;SDS011;3136;48.788;9.772;2022-12-11T00:09:23;32.43;;;17.70;;
6205;SDS011;3136;48.788;9.772;2022-12-11T00:11:49;31.67;;;18.10;;
6205;SDS011;3136;48.788;9.772;2022-12-11T00:14:15;32.97;;;18.80;;
6205;SDS011;3136;48.788;9.772;2022-12-11T00:16:40;29.97;;;17.40;;
6205;SDS011;3136;48.788;9.772;2022-12-11T00:19:06;31.40;;;18.20;;
6205;SDS011;3136;48.788;9.772;2022-12-11T00:21:32;33.27;;;18.87;;
6205;SDS011;3136;48.788;9.772;2022-12-11T00:23:58;31.10;;;18.90;;
6205;SDS011;3136;48.788;9.772;2022-12-11T00:26:24;29.63;;;17.50;;
6205;SDS011;3136;48.788;9.772;2022-12-11T00:28:54;33.57;;;19.13;;
6205;SDS011;3136;48.788;9.772;2022-12-11T00:31:21;33.40;;;18.50;;
6205;SDS011;3136;48.788;9.772;2022-12-11T00:33:47;34.03;;;18.43;;
6205;SDS011;3136;48.788;9.772;2022-12-11T00:36:14;33.80;;;18.20;;
6205;SDS011;3136;48.788;9.772;2022-12-11T00:38:41;31.80;;;18.40;;
6205;SDS011;3136;48.788;9.772;2022-12-11T00:41:07;34.27;;;19.53;;
6205;SDS011;3136;48.788;9.772;2022-12-11T00:43:33;32.60;;;18.37;;
6205;SDS011;3136;48.788;9.772;2022-12-11T00:45:59;33.00;;;19.43;;
6205;SDS011;3136;48.788;9.772;2022-12-11T00:48:24;33.10;;;18.67;;
6205;SDS011;3136;48.788;9.772;2022-12-11T00:50:50;34.30;;;19.33;;
6205;SDS011;3136;48.788;9.772;2022-12-11T00:53:16;33.30;;;19.67;;
6205;SDS011;3136;48.788;9.772;2022-12-11T00:55:41;29.63;;;17.73;;
6205;SDS011;3136;48.788;9.772;2022-12-11T00:58:08;32.70;;;18.43;;
6205;SDS011;3136;48.788;9.772;2022-12-11T01:00:34;34.47;;;19.70;;
6205;SDS011;3136;48.788;9.772;2022-12-11T01:03:00;36.13;;;19.47;;
6205;SDS011;3136;48.788;9.772;2022-12-11T01:05:26;34.57;;;18.97;;
6205;SDS011;3136;48.788;9.772;2022-12-11T01:07:51;30.73;;;18.37;;
6205;SDS011;3136;48.788;9.772;2022-12-11T01:10:17;31.77;;;19.00;;
6205;SDS011;3136;48.788;9.772;2022-12-11T01:12:58;33.13;;;19.13;;
6205;SDS011;3136;48.788;9.772;2022-12-11T01:15:27;31.27;;;18.07;;
6205;SDS011;3136;48.788;9.772;2022-12-11T01:17:54;32.47;;;18.67;;
6205;SDS011;3136;48.788;9.772;2022-12-11T01:20:20;28.40;;;17.67;;
6205;SDS011;3136;48.788;9.772;2022-12-11T01:22:47;32.07;;;18.93;;
6205;SDS011;3136;48.788;9.772;2022-12-11T01:25:15;31.73;;;18.43;;
6205;SDS011;3136;48.788;9.772;2022-12-11T01:27:41;32.60;;;18.60;;
6205;SDS011;3136;48.788;9.772;2022-12-11T01:30:07;32.57;;;18.80;;
6205;SDS011;3136;48.788;9.772;2022-12-11T01:32:34;32.83;;;18.73;;
6205;SDS011;3136;48.788;9.772;2022-12-11T01:35:02;33.43;;;19.10;;
6205;SDS011;3136;48.788;9.772;2022-12-11T01:37:28;32.57;;;18.67;;
6205;SDS011;3136;48.788;9.772;2022-12-11T01:39:54;30.50;;;18.50;;
6205;SDS011;3136;48.788;9.772;2022-12-11T01:42:20;30.70;;;17.70;;
6205;SDS011;3136;48.788;9.772;2022-12-11T01:47:11;33.10;;;18.20;;
6205;SDS011;3136;48.788;9.772;2022-12-11T01:49:37;28.03;;;17.57;;
6205;SDS011;3136;48.788;9.772;2022-12-11T01:52:06;29.93;;;18.27;;
6205;SDS011;3136;48.788;9.772;2022-12-11T01:54:37;29.33;;;17.00;;
6205;SDS011;3136;48.788;9.772;2022-12-11T01:57:03;28.63;;;17.00;;
6205;SDS011;3136;48.788;9.772;2022-12-11T01:59:33;28.87;;;17.43;;
6205;SDS011;3136;48.788;9.772;2022-12-11T02:02:03;30.27;;;16.57;;
6205;SDS011;3136;48.788;9.772;2022-12-11T02:04:32;28.03;;;15.73;;
6205;SDS011;3136;48.788;9.772;2022-12-11T02:07:01;27.83;;;16.50;;
6205;SDS011;3136;48.788;9.772;2022-12-11T02:09:28;25.27;;;15.60;;
6205;SDS011;3136;48.788;9.772;2022-12-11T02:20:33;27.57;;;15.07;;
6205;SDS011;3136;48.788;9.772;2022-12-11T02:26:10;24.37;;;13.53;;
6205;SDS011;3136;48.788;9.772;2022-12-11T02:28:42;26.23;;;13.97;;
6205;SDS011;3136;48.788;9.772;2022-12-11T02:31:16;23.63;;;13.90;;
6205;SDS011;3136;48.788;9.772;2022-12-11T02:33:49;24.57;;;13.20;;
6205;SDS011;3136;48.788;9.772;2022-12-11T02:36:23;21.23;;;12.80;;
6205;SDS011;3136;48.788;9.772;2022-12-11T02:38:50;19.97;;;11.73;;
6205;SDS011;3136;48.788;9.772;2022-12-11T02:41:18;16.90;;;9.83;;
6205;SDS011;3136;48.788;9.772;2022-12-11T02:43:45;15.87;;;9.13;;
6205;SDS011;3136;48.788;9.772;2022-12-11T02:46:13;16.77;;;9.63;;
6205;SDS011;3136;48.788;9.772;2022-12-11T02:48:41;17.93;;;9.70;;
6205;SDS011;3136;48.788;9.772;2022-12-11T02:51:08;16.17;;;9.20;;
6205;SDS011;3136;48.788;9.772;2022-12-11T02:53:36;14.07;;;8.80;;
6205;SDS011;3136;48.788;9.772;2022-12-11T02:56:09;12.87;;;8.53;;
6205;SDS011;3136;48.788;9.772;2022-12-11T02:58:49;10.90;;;7.23;;
6205;SDS011;3136;48.788;9.772;2022-12-11T03:01:19;11.33;;;6.93;;
6205;SDS011;3136;48.788;9.772;2022-12-11T03:03:45;9.57;;;6.27;;
6205;SDS011;3136;48.788;9.772;2022-12-11T03:06:12;9.57;;;6.13;;
6205;SDS011;3136;48.788;9.772;2022-12-11T03:08:42;9.80;;;6.17;;
6205;SDS011;3136;48.788;9.772;2022-12-11T03:11:09;9.73;;;6.70;;
6205;SDS011;3136;48.788;9.772;2022-12-11T03:13:36;11.77;;;7.17;;
6205;SDS011;3136;48.788;9.772;2022-12-11T03:18:57;8.87;;;6.53;;
6205;SDS011;3136;48.788;9.772;2022-12-11T03:21:35;11.63;;;6.90;;
6205;SDS011;3136;48.788;9.772;2022-12-11T03:24:18;11.83;;;7.07;;
6205;SDS011;3136;48.788;9.772;2022-12-11T03:26:53;11.13;;;7.30;;
6205;SDS011;3136;48.788;9.772;2022-12-11T03:29:24;11.03;;;7.27;;
6205;SDS011;3136;48.788;9.772;2022-12-11T03:31:57;11.07;;;7.93;;
6205;SDS011;3136;48.788;9.772;2022-12-11T03:37:18;11.87;;;7.67;;
6205;SDS011;3136;48.788;9.772;2022-12-11T03:39:47;16.63;;;7.67;;
6205;SDS011;3136;48.788;9.772;2022-12-11T03:42:16;11.50;;;7.17;;
6205;SDS011;3136;48.788;9.772;2022-12-11T03:44:45;12.23;;;7.57;;
6205;SDS011;3136;48.788;9.772;2022-12-11T03:47:14;10.60;;;7.10;;
6205;SDS011;3136;48.788;9.772;2022-12-11T03:49:44;11.37;;;7.50;;
6205;SDS011;3136;48.788;9.772;2022-12-11T03:52:12;9.30;;;6.90;;
6205;SDS011;3136;48.788;9.772;2022-12-11T03:54:40;12.33;;;8.20;;
6205;SDS011;3136;48.788;9.772;2022-12-11T03:57:08;11.80;;;7.63;;
6205;SDS011;3136;48.788;9.772;2022-12-11T03:59:37;11.80;;;7.97;;
6205;SDS011;3136;48.788;9.772;2022-12-11T04:02:03;11.70;;;8.10;;
6205;SDS011;3136;48.788;9.772;2022-12-11T04:04:35;11.87;;;7.67;;
6205;SDS011;3136;48.788;9.772;2022-12-11T04:07:05;10.03;;;6.77;;
6205;SDS011;3136;48.788;9.772;2022-12-11T04:09:31;11.87;;;7.60;;
6205;SDS011;3136;48.788;9.772;2022-12-11T04:11:58;10.23;;;7.20;;
6205;SDS011;3136;48.788;9.772;2022-12-11T04:14:24;12.80;;;8.13;;
6205;SDS011;3136;48.788;9.772;2022-12-11T04:17:08;10.20;;;6.70;;
6205;SDS011;3136;48.788;9.772;2022-12-11T04:19:34;9.63;;;7.00;;
6205;SDS011;3136;48.788;9.772;2022-12-11T04:22:18;9.77;;;7.13;;
6205;SDS011;3136;48.788;9.772;2022-12-11T04:25:03;11.80;;;7.13;;
6205;SDS011;3136;48.788;9.772;2022-12-11T04:27:30;10.80;;;6.60;;
6205;SDS011;3136;48.788;9.772;2022-12-11T04:30:16;12.03;;;7.17;;
6205;SDS011;3136;48.788;9.772;2022-12-11T04:32:43;9.93;;;6.93;;
6205;SDS011;3136;48.788;9.772;2022-12-11T04:35:09;11.20;;;7.27;;
6205;SDS011;3136;48.788;9.772;2022-12-11T04:37:36;11.13;;;7.10;;
6205;SDS011;3136;48.788;9.772;2022-12-11T04:40:03;11.77;;;7.47;;
6205;SDS011;3136;48.788;9.772;2022-12-11T04:42:30;10.63;;;7.67;;
6205;SDS011;3136;48.788;9.772;2022-12-11T04:44:55;11.23;;;7.93;;
6205;SDS011;3136;48.788;9.772;2022-12-11T04:47:21;12.43;;;7.90;;
6205;SDS011;3136;48.788;9.772;2022-12-11T04:49:46;13.27;;;8.27;;
6205;SDS011;3136;48.788;9.772;2022-12-11T04:52:12;12.50;;;8.27;;
6205;SDS011;3136;48.788;9.772;2022-12-11T04:54:38;12.30;;;7.67;;
6205;SDS011;3136;48.788;9.772;2022-12-11T04:57:03;11.90;;;7.97;;
6205;SDS011;3136;48.788;9.772;2022-12-11T04:59:30;11.83;;;8.17;;
6205;SDS011;3136;48.788;9.772;2022-12-11T05:01:56;13.67;;;9.00;;
6205;SDS011;3136;48.788;9.772;2022-12-11T05:04:22;12.90;;;8.67;;
6205;SDS011;3136;48.788;9.772;2022-12-11T05:06:48;12.47;;;8.60;;
6205;SDS011;3136;48.788;9.772;2022-12-11T05:09:14;13.07;;;8.87;;
6205;SDS011;3136;48.788;9.772;2022-12-11T05:11:40;14.40;;;8.87;;
6205;SDS011;3136;48.788;9.772;2022-12-11T05:14:06;14.13;;;9.13;;
6205;SDS011;3136;48.788;9.772;2022-12-11T05:16:31;13.47;;;9.37;;
6205;SDS011;3136;48.788;9.772;2022-12-11T05:18:57;15.00;;;8.83;;
6205;SDS011;3136;48.788;9.772;2022-12-11T05:21:23;13.60;;;9.07;;
6205;SDS011;3136;48.788;9.772;2022-12-11T05:23:48;13.03;;;9.10;;
6205;SDS011;3136;48.788;9.772;2022-12-11T05:26:15;14.50;;;8.80;;
6205;SDS011;3136;48.788;9.772;2022-12-11T05:28:43;13.43;;;9.27;;
6205;SDS011;3136;48.788;9.772;2022-12-11T05:31:14;13.10;;;8.60;;
6205;SDS011;3136;48.788;9.772;2022-12-11T05:33:42;14.77;;;9.37;;
6205;SDS011;3136;48.788;9.772;2022-12-11T05:36:14;15.23;;;9.37;;
6205;SDS011;3136;48.788;9.772;2022-12-11T05:38:42;15.43;;;10.10;;
6205;SDS011;3136;48.788;9.772;2022-12-11T05:41:07;14.80;;;9.67;;
6205;SDS011;3136;48.788;9.772;2022-12-11T05:43:36;15.47;;;10.30;;
6205;SDS011;3136;48.788;9.772;2022-12-11T05:46:06;17.50;;;11.00;;
6205;SDS011;3136;48.788;9.772;2022-12-11T05:48:33;19.50;;;11.10;;
6205;SDS011;3136;48.788;9.772;2022-12-11T05:50:59;16.53;;;10.90;;
6205;SDS011;3136;48.788;9.772;2022-12-11T05:53:27;15.03;;;10.40;;
6205;SDS011;3136;48.788;9.772;2022-12-11T05:55:53;17.30;;;11.40;;
6205;SDS011;3136;48.788;9.772;2022-12-11T05:58:19;19.20;;;12.07;;
6205;SDS011;3136;48.788;9.772;2022-12-11T06:00:46;17.20;;;11.53;;
6205;SDS011;3136;48.788;9.772;2022-12-11T06:03:12;15.77;;;10.83;;
6205;SDS011;3136;48.788;9.772;2022-12-11T06:05:38;18.23;;;11.23;;
6205;SDS011;3136;48.788;9.772;2022-12-11T06:08:04;21.13;;;12.10;;
6205;SDS011;3136;48.788;9.772;2022-12-11T06:10:30;21.00;;;12.13;;
6205;SDS011;3136;48.788;9.772;2022-12-11T06:12:55;20.93;;;12.60;;
6205;SDS011;3136;48.788;9.772;2022-12-11T06:15:21;19.80;;;12.33;;
6205;SDS011;3136;48.788;9.772;2022-12-11T06:17:47;21.90;;;12.47;;
6205;SDS011;3136;48.788;9.772;2022-12-11T06:20:12;18.97;;;12.13;;
6205;SDS011;3136;48.788;9.772;2022-12-11T06:22:38;17.63;;;11.73;;
6205;SDS011;3136;48.788;9.772;2022-12-11T06:25:04;20.47;;;12.63;;
6205;SDS011;3136;48.788;9.772;2022-12-11T06:27:30;17.37;;;12.00;;
6205;SDS011;3136;48.788;9.772;2022-12-11T06:29:55;20.40;;;12.50;;
6205;SDS011;3136;48.788;9.772;2022-12-11T06:32:21;17.83;;;11.90;;
6205;SDS011;3136;48.788;9.772;2022-12-11T06:34:46;18.47;;;11.83;;
6205;SDS011;3136;48.788;9.772;2022-12-11T06:37:12;16.67;;;11.53;;
6205;SDS011;3136;48.788;9.772;2022-12-11T06:39:38;18.87;;;10.80;;
6205;SDS011;3136;48.788;9.772;2022-12-11T06:42:03;20.27;;;12.10;;
6205;SDS011;3136;48.788;9.772;2022-12-11T06:44:29;20.33;;;12.50;;
6205;SDS011;3136;48.788;9.772;2022-12-11T06:46:55;20.53;;;12.07;;
6205;SDS011;3136;48.788;9.772;2022-12-11T06:49:20;21.30;;;12.50;;
6205;SDS011;3136;48.788;9.772;2022-12-11T06:51:46;18.70;;;12.30;;
6205;SDS011;3136;48.788;9.772;2022-12-11T06:54:11;21.00;;;13.27;;
6205;SDS011;3136;48.788;9.772;2022-12-11T06:56:37;19.57;;;12.53;;
6205;SDS011;3136;48.788;9.772;2022-12-11T06:59:03;20.23;;;12.87;;
6205;SDS011;3136;48.788;9.772;2022-12-11T07:01:28;20.80;;;13.33;;
6205;SDS011;3136;48.788;9.772;2022-12-11T07:03:55;27.43;;;15.60;;
6205;SDS011;3136;48.788;9.772;2022-12-11T07:06:22;22.60;;;13.60;;
6205;SDS011;3136;48.788;9.772;2022-12-11T07:08:49;20.60;;;13.00;;
6205;SDS011;3136;48.788;9.772;2022-12-11T07:11:15;20.07;;;11.30;;
6205;SDS011;3136;48.788;9.772;2022-12-11T07:13:42;22.07;;;12.50;;
6205;SDS011;3136;48.788;9.772;2022-12-11T07:16:08;21.63;;;12.43;;
6205;SDS011;3136;48.788;9.772;2022-12-11T07:18:39;21.23;;;12.37;;
6205;SDS011;3136;48.788;9.772;2022-12-11T07:21:06;20.93;;;12.27;;
6205;SDS011;3136;48.788;9.772;2022-12-11T07:23:33;21.57;;;12.57;;
6205;SDS011;3136;48.788;9.772;2022-12-11T07:26:03;20.10;;;12.37;;
6205;SDS011;3136;48.788;9.772;2022-12-11T07:28:30;19.50;;;13.00;;
6205;SDS011;3136;48.788;9.772;2022-12-11T07:30:55;22.03;;;12.20;;
6205;SDS011;3136;48.788;9.772;2022-12-11T07:33:21;23.77;;;13.80;;
6205;SDS011;3136;48.788;9.772;2022-12-11T07:35:46;22.90;;;13.13;;
6205;SDS011;3136;48.788;9.772;2022-12-11T07:38:12;23.90;;;14.17;;
6205;SDS011;3136;48.788;9.772;2022-12-11T07:40:37;21.20;;;12.57;;
6205;SDS011;3136;48.788;9.772;2022-12-11T07:43:03;19.90;;;12.83;;
6205;SDS011;3136;48.788;9.772;2022-12-11T07:45:28;20.80;;;12.23;;
6205;SDS011;3136;48.788;9.772;2022-12-11T07:47:54;20.23;;;12.20;;
6205;SDS011;3136;48.788;9.772;2022-12-11T07:50:20;18.83;;;11.93;;
6205;SDS011;3136;48.788;9.772;2022-12-11T07:52:45;18.80;;;11.97;;
6205;SDS011;3136;48.788;9.772;2022-12-11T07:55:11;21.57;;;12.93;;
6205;SDS011;3136;48.788;9.772;2022-12-11T07:57:36;28.30;;;14.40;;
6205;SDS011;3136;48.788;9.772;2022-12-11T08:00:02;19.97;;;12.70;;
6205;SDS011;3136;48.788;9.772;2022-12-11T08:02:29;26.83;;;13.37;;
6205;SDS011;3136;48.788;9.772;2022-12-11T08:04:54;23.50;;;13.93;;
6205;SDS011;3136;48.788;9.772;2022-12-11T08:07:20;23.70;;;13.67;;
6205;SDS011;3136;48.788;9.772;2022-12-11T08:09:45;24.00;;;13.70;;
6205;SDS011;3136;48.788;9.772;2022-12-11T08:12:11;20.47;;;13.33;;
6205;SDS011;3136;48.788;9.772;2022-12-11T08:14:37;21.87;;;13.20;;
6205;SDS011;3136;48.788;9.772;2022-12-11T08:17:03;21.40;;;12.83;;
6205;SDS011;3136;48.788;9.772;2022-12-11T08:19:28;20.87;;;12.97;;
6205;SDS011;3136;48.788;9.772;2022-12-11T08:21:54;22.33;;;12.83;;
6205;SDS011;3136;48.788;9.772;2022-12-11T08:24:19;21.40;;;13.77;;
6205;SDS011;3136;48.788;9.772;2022-12-11T08:26:45;19.67;;;12.97;;
6205;SDS011;3136;48.788;9.772;2022-12-11T08:29:12;20.53;;;12.47;;
6205;SDS011;3136;48.788;9.772;2022-12-11T08:31:39;18.97;;;12.53;;
6205;SDS011;3136;48.788;9.772;2022-12-11T08:34:05;17.43;;;11.27;;
6205;SDS011;3136;48.788;9.772;2022-12-11T08:36:30;22.60;;;12.23;;
6205;SDS011;3136;48.788;9.772;2022-12-11T08:38:56;19.77;;;12.40;;
6205;SDS011;3136;48.788;9.772;2022-12-11T08:41:26;17.13;;;11.27;;
6205;SDS011;3136;48.788;9.772;2022-12-11T08:43:53;20.47;;;12.13;;
6205;SDS011;3136;48.788;9.772;2022-12-11T08:46:24;17.80;;;11.27;;
6205;SDS011;3136;48.788;9.772;2022-12-11T08:48:51;18.87;;;11.50;;
6205;SDS011;3136;48.788;9.772;2022-12-11T08:51:19;20.10;;;11.27;;
6205;SDS011;3136;48.788;9.772;2022-12-11T08:53:47;20.67;;;11.67;;
6205;SDS011;3136;48.788;9.772;2022-12-11T08:56:17;19.13;;;11.93;;
6205;SDS011;3136;48.788;9.772;2022-12-11T08:58:44;18.63;;;12.10;;
6205;SDS011;3136;48.788;9.772;2022-12-11T09:01:11;18.40;;;10.97;;
6205;SDS011;3136;48.788;9.772;2022-12-11T09:03:39;19.23;;;11.23;;
6205;SDS011;3136;48.788;9.772;2022-12-11T09:06:05;21.27;;;11.47;;
6205;SDS011;3136;48.788;9.772;2022-12-11T09:08:33;19.73;;;11.57;;
6205;SDS011;3136;48.788;9.772;2022-12-11T09:11:03;20.47;;;12.10;;
6205;SDS011;3136;48.788;9.772;2022-12-11T09:13:39;17.43;;;10.93;;
6205;SDS011;3136;48.788;9.772;2022-12-11T09:16:07;19.60;;;12.00;;
6205;SDS011;3136;48.788;9.772;2022-12-11T09:18:35;18.77;;;12.13;;
6205;SDS011;3136;48.788;9.772;2022-12-11T09:21:03;18.17;;;11.73;;
6205;SDS011;3136;48.788;9.772;2022-12-11T09:23:30;19.40;;;12.50;;
6205;SDS011;3136;48.788;9.772;2022-12-11T09:25:56;20.83;;;12.87;;
6205;SDS011;3136;48.788;9.772;2022-12-11T09:28:22;18.93;;;11.77;;
6205;SDS011;3136;48.788;9.772;2022-12-11T09:30:48;18.80;;;12.23;;
6205;SDS011;3136;48.788;9.772;2022-12-11T09:33:13;21.20;;;11.83;;
6205;SDS011;3136;48.788;9.772;2022-12-11T09:35:39;20.33;;;12.73;;
6205;SDS011;3136;48.788;9.772;2022-12-11T09:38:05;21.07;;;12.77;;
6205;SDS011;3136;48.788;9.772;2022-12-11T09:40:30;21.00;;;12.60;;
6205;SDS011;3136;48.788;9.772;2022-12-11T09:43:05;19.93;;;12.27;;
6205;SDS011;3136;48.788;9.772;2022-12-11T09:45:42;18.97;;;12.27;;
6205;SDS011;3136;48.788;9.772;2022-12-11T09:48:08;19.30;;;12.00;;
6205;SDS011;3136;48.788;9.772;2022-12-11T09:50:35;18.00;;;11.50;;
6205;SDS011;3136;48.788;9.772;2022-12-11T10:01:07;21.87;;;12.30;;
6205;SDS011;3136;48.788;9.772;2022-12-11T10:03:49;21.17;;;12.67;;
6205;SDS011;3136;48.788;9.772;2022-12-11T10:09:14;20.13;;;11.40;;
6205;SDS011;3136;48.788;9.772;2022-12-11T10:12:11;18.53;;;11.43;;
6205;SDS011;3136;48.788;9.772;2022-12-11T10:17:37;18.80;;;11.23;;
6205;SDS011;3136;48.788;9.772;2022-12-11T10:22:44;18.67;;;11.43;;
6205;SDS011;3136;48.788;9.772;2022-12-11T10:25:18;17.80;;;11.50;;
6205;SDS011;3136;48.788;9.772;2022-12-11T10:27:46;19.03;;;10.87;;
6205;SDS011;3136;48.788;9.772;2022-12-11T10:32:50;14.80;;;9.30;;
6205;SDS011;3136;48.788;9.772;2022-12-11T10:35:18;17.53;;;10.77;;
6205;SDS011;3136;48.788;9.772;2022-12-11T10:37:56;18.50;;;11.00;;
6205;SDS011;3136;48.788;9.772;2022-12-11T10:40:35;18.27;;;11.07;;
6205;SDS011;3136;48.788;9.772;2022-12-11T10:43:04;16.93;;;11.70;;
6205;SDS011;3136;48.788;9.772;2022-12-11T10:45:32;20.43;;;11.37;;
6205;SDS011;3136;48.788;9.772;2022-12-11T10:48:04;21.73;;;11.07;;
6205;SDS011;3136;48.788;9.772;2022-12-11T10:50:33;20.13;;;11.00;;
6205;SDS011;3136;48.788;9.772;2022-12-11T10:52:59;19.83;;;10.77;;
6205;SDS011;3136;48.788;9.772;2022-12-11T10:55:59;17.13;;;10.53;;
6205;SDS011;3136;48.788;9.772;2022-12-11T10:58:21;17.53;;;11.00;;
6205;SDS011;3136;48.788;9.772;2022-12-11T11:03:30;17.40;;;10.77;;
6205;SDS011;3136;48.788;9.772;2022-12-11T11:06:01;17.70;;;10.63;;
6205;SDS011;3136;48.788;9.772;2022-12-11T11:08:55;17.40;;;11.23;;
6205;SDS011;3136;48.788;9.772;2022-12-11T11:11:24;16.70;;;10.20;;
6205;SDS011;3136;48.788;9.772;2022-12-11T11:14:07;17.97;;;11.87;;
6205;SDS011;3136;48.788;9.772;2022-12-11T11:16:38;17.37;;;11.00;;
6205;SDS011;3136;48.788;9.772;2022-12-11T11:19:18;17.73;;;10.93;;
6205;SDS011;3136;48.788;9.772;2022-12-11T11:21:55;19.10;;;10.53;;
6205;SDS011;3136;48.788;9.772;2022-12-11T11:24:33;19.33;;;10.60;;
6205;SDS011;3136;48.788;9.772;2022-12-11T11:27:43;19.23;;;10.93;;
6205;SDS011;3136;48.788;9.772;2022-12-11T11:30:25;18.17;;;11.13;;
6205;SDS011;3136;48.788;9.772;2022-12-11T11:33:01;21.30;;;10.77;;
6205;SDS011;3136;48.788;9.772;2022-12-11T11:35:30;27.97;;;16.17;;
6205;SDS011;3136;48.788;9.772;2022-12-11T11:40:36;19.20;;;10.53;;
6205;SDS011;3136;48.788;9.772;2022-12-11T11:43:31;97.13;;;37.47;;
6205;SDS011;3136;48.788;9.772;2022-12-11T11:48:57;17.67;;;11.07;;
6205;SDS011;3136;48.788;9.772;2022-12-11T11:54:04;25.07;;;13.60;;
6205;SDS011;3136;48.788;9.772;2022-12-11T11:56:44;76.37;;;37.00;;
6205;SDS011;3136;48.788;9.772;2022-12-11T12:02:12;17.63;;;10.37;;
6205;SDS011;3136;48.788;9.772;2022-12-11T12:04:40;18.17;;;11.70;;
6205;SDS011;3136;48.788;9.772;2022-12-11T12:15:28;17.00;;;10.13;;
6205;SDS011;3136;48.788;9.772;2022-12-11T12:18:07;14.83;;;9.27;;
6205;SDS011;3136;48.788;9.772;2022-12-11T12:23:37;14.20;;;8.77;;
6205;SDS011;3136;48.788;9.772;2022-12-11T12:37:14;16.37;;;9.30;;
6205;SDS011;3136;48.788;9.772;2022-12-11T12:40:00;16.33;;;9.07;;
6205;SDS011;3136;48.788;9.772;2022-12-11T12:42:44;17.23;;;10.53;;
6205;SDS011;3136;48.788;9.772;2022-12-11T12:45:30;17.87;;;10.07;;
6205;SDS011;3136;48.788;9.772;2022-12-11T12:48:11;15.47;;;9.27;;
6205;SDS011;3136;48.788;9.772;2022-12-11T12:50:39;17.73;;;10.13;;
6205;SDS011;3136;48.788;9.772;2022-12-11T12:53:08;14.63;;;9.57;;
6205;SDS011;3136;48.788;9.772;2022-12-11T12:55:40;14.03;;;8.80;;
6205;SDS011;3136;48.788;9.772;2022-12-11T12:58:06;14.80;;;9.90;;
6205;SDS011;3136;48.788;9.772;2022-12-11T13:00:48;16.50;;;9.90;;
6205;SDS011;3136;48.788;9.772;2022-12-11T13:03:21;16.93;;;9.77;;
6205;SDS011;3136;48.788;9.772;2022-12-11T13:05:56;15.90;;;9.57;;
6205;SDS011;3136;48.788;9.772;2022-12-11T13:08:24;17.30;;;10.10;;
6205;SDS011;3136;48.788;9.772;2022-12-11T13:11:02;15.37;;;8.40;;
6205;SDS011;3136;48.788;9.772;2022-12-11T13:16:06;16.33;;;9.47;;
6205;SDS011;3136;48.788;9.772;2022-12-11T13:18:33;17.47;;;9.87;;
6205;SDS011;3136;48.788;9.772;2022-12-11T13:21:53;16.27;;;10.23;;
6205;SDS011;3136;48.788;9.772;2022-12-11T13:24:15;13.87;;;8.63;;
6205;SDS011;3136;48.788;9.772;2022-12-11T13:26:44;15.53;;;9.20;;
6205;SDS011;3136;48.788;9.772;2022-12-11T13:29:29;15.33;;;9.33;;
6205;SDS011;3136;48.788;9.772;2022-12-11T13:32:00;17.43;;;10.27;;
6205;SDS011;3136;48.788;9.772;2022-12-11T13:34:54;19.00;;;10.60;;
6205;SDS011;3136;48.788;9.772;2022-12-11T13:37:30;16.13;;;9.87;;
6205;SDS011;3136;48.788;9.772;2022-12-11T13:40:04;15.27;;;9.43;;
6205;SDS011;3136;48.788;9.772;2022-12-11T13:42:46;17.50;;;9.57;;
6205;SDS011;3136;48.788;9.772;2022-12-11T13:45:20;15.77;;;9.77;;
6205;SDS011;3136;48.788;9.772;2022-12-11T13:47:52;16.43;;;9.80;;
6205;SDS011;3136;48.788;9.772;2022-12-11T13:50:28;14.07;;;9.10;;
6205;SDS011;3136;48.788;9.772;2022-12-11T13:52:56;13.57;;;8.20;;
6205;SDS011;3136;48.788;9.772;2022-12-11T13:55:30;15.10;;;9.07;;
6205;SDS011;3136;48.788;9.772;2022-12-11T13:57:58;14.67;;;9.13;;
6205;SDS011;3136;48.788;9.772;2022-12-11T14:00:25;13.63;;;8.50;;
6205;SDS011;3136;48.788;9.772;2022-12-11T14:02:56;14.57;;;8.60;;
6205;SDS011;3136;48.788;9.772;2022-12-11T14:05:25;14.30;;;8.50;;
6205;SDS011;3136;48.788;9.772;2022-12-11T14:07:52;17.83;;;9.40;;
6205;SDS011;3136;48.788;9.772;2022-12-11T14:10:24;19.13;;;9.70;;
6205;SDS011;3136;48.788;9.772;2022-12-11T14:12:59;16.67;;;9.50;;
6205;SDS011;3136;48.788;9.772;2022-12-11T14:15:52;15.17;;;9.37;;
6205;SDS011;3136;48.788;9.772;2022-12-11T14:18:26;18.23;;;9.97;;
6205;SDS011;3136;48.788;9.772;2022-12-11T14:20:55;16.93;;;10.10;;
6205;SDS011;3136;48.788;9.772;2022-12-11T14:23:25;16.17;;;9.00;;
6205;SDS011;3136;48.788;9.772;2022-12-11T14:25:56;14.83;;;8.57;;
6205;SDS011;3136;48.788;9.772;2022-12-11T14:28:27;18.43;;;9.00;;
6205;SDS011;3136;48.788;9.772;2022-12-11T14:30:59;13.40;;;8.37;;
6205;SDS011;3136;48.788;9.772;2022-12-11T14:33:28;24.53;;;9.97;;
6205;SDS011;3136;48.788;9.772;2022-12-11T14:35:57;18.43;;;10.27;;
6205;SDS011;3136;48.788;9.772;2022-12-11T14:38:26;19.33;;;10.23;;
6205;SDS011;3136;48.788;9.772;2022-12-11T14:41:10;19.70;;;11.17;;
6205;SDS011;3136;48.788;9.772;2022-12-11T14:43:47;16.63;;;10.20;;
6205;SDS011;3136;48.788;9.772;2022-12-11T14:46:21;19.47;;;10.20;;
6205;SDS011;3136;48.788;9.772;2022-12-11T14:48:58;18.00;;;10.53;;
6205;SDS011;3136;48.788;9.772;2022-12-11T14:51:30;21.77;;;10.90;;
6205;SDS011;3136;48.788;9.772;2022-12-11T14:54:01;20.20;;;11.50;;
6205;SDS011;3136;48.788;9.772;2022-12-11T14:56:29;20.13;;;10.90;;
6205;SDS011;3136;48.788;9.772;2022-12-11T14:58:57;21.63;;;12.07;;
6205;SDS011;3136;48.788;9.772;2022-12-11T15:01:31;19.50;;;10.70;;
6205;SDS011;3136;48.788;9.772;2022-12-11T15:04:03;18.57;;;10.87;;
6205;SDS011;3136;48.788;9.772;2022-12-11T15:07:15;20.07;;;11.43;;
6205;SDS011;3136;48.788;9.772;2022-12-11T15:09:45;26.23;;;12.30;;
6205;SDS011;3136;48.788;9.772;2022-12-11T15:12:12;21.40;;;12.37;;
6205;SDS011;3136;48.788;9.772;2022-12-11T15:14:46;21.17;;;11.90;;
6205;SDS011;3136;48.788;9.772;2022-12-11T15:17:15;20.40;;;11.40;;
6205;SDS011;3136;48.788;9.772;2022-12-11T15:19:41;18.80;;;10.77;;
6205;SDS011;3136;48.788;9.772;2022-12-11T15:22:12;20.80;;;10.80;;
6205;SDS011;3136;48.788;9.772;2022-12-11T15:24:41;21.03;;;10.73;;
6205;SDS011;3136;48.788;9.772;2022-12-11T15:29:47;21.60;;;10.83;;
6205;SDS011;3136;48.788;9.772;2022-12-11T15:34:55;17.40;;;9.80;;
6205;SDS011;3136;48.788;9.772;2022-12-11T15:37:24;19.57;;;10.37;;
6205;SDS011;3136;48.788;9.772;2022-12-11T15:39:51;20.70;;;10.63;;
6205;SDS011;3136;48.788;9.772;2022-12-11T15:45:00;16.83;;;10.27;;
6205;SDS011;3136;48.788;9.772;2022-12-11T15:47:28;18.73;;;10.80;;
6205;SDS011;3136;48.788;9.772;2022-12-11T15:49:56;21.50;;;10.60;;
6205;SDS011;3136;48.788;9.772;2022-12-11T15:52:41;20.03;;;10.83;;
6205;SDS011;3136;48.788;9.772;2022-12-11T15:55:07;23.43;;;11.17;;
6205;SDS011;3136;48.788;9.772;2022-12-11T15:57:33;21.00;;;11.40;;
6205;SDS011;3136;48.788;9.772;2022-12-11T15:59:59;24.87;;;11.57;;
6205;SDS011;3136;48.788;9.772;2022-12-11T16:02:25;18.13;;;10.53;;
6205;SDS011;3136;48.788;9.772;2022-12-11T16:04:51;21.23;;;11.10;;
6205;SDS011;3136;48.788;9.772;2022-12-11T16:07:19;19.33;;;10.83;;
6205;SDS011;3136;48.788;9.772;2022-12-11T16:09:46;20.63;;;10.97;;
6205;SDS011;3136;48.788;9.772;2022-12-11T16:12:12;21.43;;;11.90;;
6205;SDS011;3136;48.788;9.772;2022-12-11T16:14:38;21.87;;;11.53;;
6205;SDS011;3136;48.788;9.772;2022-12-11T16:17:05;21.90;;;11.23;;
6205;SDS011;3136;48.788;9.772;2022-12-11T16:19:32;22.10;;;11.80;;
6205;SDS011;3136;48.788;9.772;2022-12-11T16:21:58;22.70;;;11.23;;
6205;SDS011;3136;48.788;9.772;2022-12-11T16:24:24;20.10;;;10.43;;
6205;SDS011;3136;48.788;9.772;2022-12-11T16:26:49;18.23;;;10.60;;
6205;SDS011;3136;48.788;9.772;2022-12-11T16:29:16;17.37;;;9.97;;
6205;SDS011;3136;48.788;9.772;2022-12-11T16:31:42;16.60;;;9.07;;
6205;SDS011;3136;48.788;9.772;2022-12-11T16:34:07;24.30;;;10.87;;